sensor_id;sensor_type;location;lat;lon;timestamp;temperature;humidity
31369;DHT22;18004;48.416;10.066;2023-04-29T00:01:06;11.40;99.90
31369;DHT22;18004;48.416;10.066;2023-04-29T00:03:32;11.40;99.90
31369;DHT22;18004;48.416;10.066;2023-04-29T00:05:58;11.40;99.90
31369;DHT22;18004;48.416;10.066;2023-04-29T00:08:24;11.40;99.90
31369;DHT22;18004;48.416;10.066;2023-04-29T00:10:50;11.30;99.90
31369;DHT22;18004;48.416;10.066;2023-04-29T00:13:16;11.30;99.90
31369;DHT22;18004;48.416;10.066;2023-04-29T00:15:42;11.30;99.90
31369;DHT22;18004;48.416;10.066;2023-04-29T00:18:08;11.30;99.90
31369;DHT22;18004;48.416;10.066;2023-04-29T00:20:35;11.20;99.90
31369;DHT22;18004;48.416;10.066;2023-04-29T00:23:02;11.20;99.90
31369;DHT22;18004;48.416;10.066;2023-04-29T00:25:28;11.20;99.90
31369;DHT22;18004;48.416;10.066;2023-04-29T00:27:54;11.20;99.90
31369;DHT22;18004;48.416;10.066;2023-04-29T00:30:20;11.20;99.90
31369;DHT22;18004;48.416;10.066;2023-04-29T00:32:46;11.10;99.90
31369;DHT22;18004;48.416;10.066;2023-04-29T00:35:12;11.10;99.90
31369;DHT22;18004;48.416;10.066;2023-04-29T00:37:38;11.10;99.90
31369;DHT22;18004;48.416;10.066;2023-04-29T00:40:05;11.10;99.90
31369;DHT22;18004;48.416;10.066;2023-04-29T00:42:31;11.00;99.90
31369;DHT22;18004;48.416;10.066;2023-04-29T00:44:58;11.00;99.90
31369;DHT22;18004;48.416;10.066;2023-04-29T00:47:24;11.00;99.90
31369;DHT22;18004;48.416;10.066;2023-04-29T00:49:50;11.00;99.90
31369;DHT22;18004;48.416;10.066;2023-04-29T00:52:16;11.00;99.90
31369;DHT22;18004;48.416;10.066;2023-04-29T00:54:43;10.90;99.90
31369;DHT22;18004;48.416;10.066;2023-04-29T00:57:09;10.90;99.90
31369;DHT22;18004;48.416;10.066;2023-04-29T00:59:36;10.90;99.90
31369;DHT22;18004;48.416;10.066;2023-04-29T01:02:03;10.90;99.90
31369;DHT22;18004;48.416;10.066;2023-04-29T01:04:31;10.90;99.90
31369;DHT22;18004;48.416;10.066;2023-04-29T01:07:22;10.90;99.90
31369;DHT22;18004;48.416;10.066;2023-04-29T01:10:13;10.90;99.90
31369;DHT22;18004;48.416;10.066;2023-04-29T01:12:52;10.90;99.90
31369;DHT22;18004;48.416;10.066;2023-04-29T01:15:38;10.90;99.90
31369;DHT22;18004;48.416;10.066;2023-04-29T01:18:11;10.80;99.90
31369;DHT22;18004;48.416;10.066;2023-04-29T01:20:40;10.90;99.90
31369;DHT22;18004;48.416;10.066;2023-04-29T01:23:09;10.90;99.90
31369;DHT22;18004;48.416;10.066;2023-04-29T01:25:35;10.90;99.90
31369;DHT22;18004;48.416;10.066;2023-04-29T01:41:42;10.80;99.90
31369;DHT22;18004;48.416;10.066;2023-04-29T01:44:15;10.80;99.90
31369;DHT22;18004;48.416;10.066;2023-04-29T01:46:43;10.80;99.90
31369;DHT22;18004;48.416;10.066;2023-04-29T01:49:12;10.80;99.90
31369;DHT22;18004;48.416;10.066;2023-04-29T01:51:37;10.80;99.90
31369;DHT22;18004;48.416;10.066;2023-04-29T01:54:03;10.80;99.90
31369;DHT22;18004;48.416;10.066;2023-04-29T01:56:29;10.80;99.90
31369;DHT22;18004;48.416;10.066;2023-04-29T01:58:55;10.90;99.90
31369;DHT22;18004;48.416;10.066;2023-04-29T02:01:21;11.00;99.90
31369;DHT22;18004;48.416;10.066;2023-04-29T02:03:46;11.00;99.90
31369;DHT22;18004;48.416;10.066;2023-04-29T02:06:12;11.10;99.90
31369;DHT22;18004;48.416;10.066;2023-04-29T02:08:38;11.10;99.90
31369;DHT22;18004;48.416;10.066;2023-04-29T02:11:04;11.20;99.90
31369;DHT22;18004;48.416;10.066;2023-04-29T02:13:30;11.20;99.90
31369;DHT22;18004;48.416;10.066;2023-04-29T02:15:56;11.20;99.90
31369;DHT22;18004;48.416;10.066;2023-04-29T02:18:22;11.30;99.90
31369;DHT22;18004;48.416;10.066;2023-04-29T02:20:48;11.30;99.90
31369;DHT22;18004;48.416;10.066;2023-04-29T02:23:15;11.30;99.90
31369;DHT22;18004;48.416;10.066;2023-04-29T02:25:41;11.30;99.90
31369;DHT22;18004;48.416;10.066;2023-04-29T02:28:08;11.30;99.90
31369;DHT22;18004;48.416;10.066;2023-04-29T02:30:34;11.30;99.90
31369;DHT22;18004;48.416;10.066;2023-04-29T02:32:59;11.30;99.90
31369;DHT22;18004;48.416;10.066;2023-04-29T02:35:25;11.30;99.90
31369;DHT22;18004;48.416;10.066;2023-04-29T02:37:51;11.30;99.90
31369;DHT22;18004;48.416;10.066;2023-04-29T02:40:17;11.30;99.90
31369;DHT22;18004;48.416;10.066;2023-04-29T02:42:42;11.30;99.90
31369;DHT22;18004;48.416;10.066;2023-04-29T02:45:09;11.30;99.90
31369;DHT22;18004;48.416;10.066;2023-04-29T02:47:35;11.40;99.90
31369;DHT22;18004;48.416;10.066;2023-04-29T02:50:00;11.30;99.90
31369;DHT22;18004;48.416;10.066;2023-04-29T02:52:26;11.40;99.90
31369;DHT22;18004;48.416;10.066;2023-04-29T02:54:52;11.30;99.90
31369;DHT22;18004;48.416;10.066;2023-04-29T02:57:18;11.40;99.90
31369;DHT22;18004;48.416;10.066;2023-04-29T02:59:43;11.40;99.90
31369;DHT22;18004;48.416;10.066;2023-04-29T03:02:09;11.40;99.90
31369;DHT22;18004;48.416;10.066;2023-04-29T03:04:35;11.40;99.90
31369;DHT22;18004;48.416;10.066;2023-04-29T03:07:01;11.40;99.90
31369;DHT22;18004;48.416;10.066;2023-04-29T03:09:27;11.40;99.90
31369;DHT22;18004;48.416;10.066;2023-04-29T03:11:52;11.40;99.90
31369;DHT22;18004;48.416;10.066;2023-04-29T03:14:18;11.40;99.90
31369;DHT22;18004;48.416;10.066;2023-04-29T03:16:44;11.40;99.90
31369;DHT22;18004;48.416;10.066;2023-04-29T03:19:10;11.40;99.90
31369;DHT22;18004;48.416;10.066;2023-04-29T03:21:36;11.40;99.90
31369;DHT22;18004;48.416;10.066;2023-04-29T03:24:02;11.40;99.90
31369;DHT22;18004;48.416;10.066;2023-04-29T03:26:28;11.40;99.90
31369;DHT22;18004;48.416;10.066;2023-04-29T03:28:53;11.40;99.90
31369;DHT22;18004;48.416;10.066;2023-04-29T03:31:19;11.50;99.90
31369;DHT22;18004;48.416;10.066;2023-04-29T03:33:47;11.50;99.90
31369;DHT22;18004;48.416;10.066;2023-04-29T03:36:13;11.50;99.90
31369;DHT22;18004;48.416;10.066;2023-04-29T03:38:38;11.50;99.90
31369;DHT22;18004;48.416;10.066;2023-04-29T03:41:04;11.40;99.90
31369;DHT22;18004;48.416;10.066;2023-04-29T03:43:30;11.40;99.90
31369;DHT22;18004;48.416;10.066;2023-04-29T03:45:56;11.40;99.90
31369;DHT22;18004;48.416;10.066;2023-04-29T03:48:22;11.40;99.90
31369;DHT22;18004;48.416;10.066;2023-04-29T03:50:47;11.40;99.90
31369;DHT22;18004;48.416;10.066;2023-04-29T03:53:13;11.40;99.90
31369;DHT22;18004;48.416;10.066;2023-04-29T03:55:39;11.40;99.90
31369;DHT22;18004;48.416;10.066;2023-04-29T03:58:05;11.40;99.90
31369;DHT22;18004;48.416;10.066;2023-04-29T04:00:31;11.40;99.90
31369;DHT22;18004;48.416;10.066;2023-04-29T04:02:57;11.40;99.90
31369;DHT22;18004;48.416;10.066;2023-04-29T04:05:23;11.30;99.90
31369;DHT22;18004;48.416;10.066;2023-04-29T04:07:51;11.30;99.90
31369;DHT22;18004;48.416;10.066;2023-04-29T04:10:17;11.30;99.90
31369;DHT22;18004;48.416;10.066;2023-04-29T04:12:43;11.30;99.90
31369;DHT22;18004;48.416;10.066;2023-04-29T04:15:09;11.20;99.90
31369;DHT22;18004;48.416;10.066;2023-04-29T04:17:35;11.20;99.90
31369;DHT22;18004;48.416;10.066;2023-04-29T04:20:00;11.20;99.90
31369;DHT22;18004;48.416;10.066;2023-04-29T04:22:26;11.20;99.90
31369;DHT22;18004;48.416;10.066;2023-04-29T04:24:55;11.20;99.90
31369;DHT22;18004;48.416;10.066;2023-04-29T04:27:21;11.30;99.90
31369;DHT22;18004;48.416;10.066;2023-04-29T04:29:47;11.30;99.90
31369;DHT22;18004;48.416;10.066;2023-04-29T04:32:13;11.40;99.90
31369;DHT22;18004;48.416;10.066;2023-04-29T04:34:39;11.40;99.90
31369;DHT22;18004;48.416;10.066;2023-04-29T04:37:05;11.40;99.90
31369;DHT22;18004;48.416;10.066;2023-04-29T04:39:31;11.40;99.90
31369;DHT22;18004;48.416;10.066;2023-04-29T04:41:57;11.50;99.90
31369;DHT22;18004;48.416;10.066;2023-04-29T04:44:22;11.50;99.90
31369;DHT22;18004;48.416;10.066;2023-04-29T04:46:50;11.50;99.90
31369;DHT22;18004;48.416;10.066;2023-04-29T04:49:16;11.50;99.90
31369;DHT22;18004;48.416;10.066;2023-04-29T04:51:45;11.50;99.90
31369;DHT22;18004;48.416;10.066;2023-04-29T04:54:11;11.50;99.90
31369;DHT22;18004;48.416;10.066;2023-04-29T04:56:37;11.50;99.90
31369;DHT22;18004;48.416;10.066;2023-04-29T04:59:03;11.50;99.90
31369;DHT22;18004;48.416;10.066;2023-04-29T05:01:29;11.60;99.90
31369;DHT22;18004;48.416;10.066;2023-04-29T05:03:54;11.60;99.90
31369;DHT22;18004;48.416;10.066;2023-04-29T05:06:20;11.60;99.90
31369;DHT22;18004;48.416;10.066;2023-04-29T05:08:46;11.60;99.90
31369;DHT22;18004;48.416;10.066;2023-04-29T05:11:16;11.60;99.90
31369;DHT22;18004;48.416;10.066;2023-04-29T05:13:42;11.70;99.90
31369;DHT22;18004;48.416;10.066;2023-04-29T05:16:07;11.70;99.90
31369;DHT22;18004;48.416;10.066;2023-04-29T05:18:33;11.70;99.90
31369;DHT22;18004;48.416;10.066;2023-04-29T05:20:59;11.70;99.90
31369;DHT22;18004;48.416;10.066;2023-04-29T05:23:25;11.80;99.90
31369;DHT22;18004;48.416;10.066;2023-04-29T05:25:51;11.80;99.90
31369;DHT22;18004;48.416;10.066;2023-04-29T05:28:17;11.80;99.90
31369;DHT22;18004;48.416;10.066;2023-04-29T05:30:43;11.80;99.90
31369;DHT22;18004;48.416;10.066;2023-04-29T05:33:09;11.80;99.90
31369;DHT22;18004;48.416;10.066;2023-04-29T05:35:36;11.80;99.90
31369;DHT22;18004;48.416;10.066;2023-04-29T05:38:02;11.80;99.90
31369;DHT22;18004;48.416;10.066;2023-04-29T05:40:28;11.90;99.90
31369;DHT22;18004;48.416;10.066;2023-04-29T05:42:53;11.90;99.90
31369;DHT22;18004;48.416;10.066;2023-04-29T05:45:20;11.90;99.90
31369;DHT22;18004;48.416;10.066;2023-04-29T05:47:46;11.90;99.90
31369;DHT22;18004;48.416;10.066;2023-04-29T05:50:11;12.00;99.90
31369;DHT22;18004;48.416;10.066;2023-04-29T05:52:37;12.00;99.90
31369;DHT22;18004;48.416;10.066;2023-04-29T05:55:03;12.10;99.90
31369;DHT22;18004;48.416;10.066;2023-04-29T05:57:29;12.10;99.90
31369;DHT22;18004;48.416;10.066;2023-04-29T05:59:55;12.10;99.90
31369;DHT22;18004;48.416;10.066;2023-04-29T06:02:22;12.20;99.90
31369;DHT22;18004;48.416;10.066;2023-04-29T06:04:47;12.20;99.90
31369;DHT22;18004;48.416;10.066;2023-04-29T06:07:13;12.20;99.90
31369;DHT22;18004;48.416;10.066;2023-04-29T06:09:39;12.30;99.90
31369;DHT22;18004;48.416;10.066;2023-04-29T06:12:05;12.40;99.90
31369;DHT22;18004;48.416;10.066;2023-04-29T06:14:31;12.40;99.90
31369;DHT22;18004;48.416;10.066;2023-04-29T06:16:57;12.40;99.90
31369;DHT22;18004;48.416;10.066;2023-04-29T06:19:22;12.40;99.90
31369;DHT22;18004;48.416;10.066;2023-04-29T06:21:49;12.30;99.90
31369;DHT22;18004;48.416;10.066;2023-04-29T06:24:16;12.40;99.90
31369;DHT22;18004;48.416;10.066;2023-04-29T06:26:41;12.50;99.90
31369;DHT22;18004;48.416;10.066;2023-04-29T06:29:08;12.60;99.90
31369;DHT22;18004;48.416;10.066;2023-04-29T06:31:34;12.60;99.90
31369;DHT22;18004;48.416;10.066;2023-04-29T06:33:59;12.70;99.90
31369;DHT22;18004;48.416;10.066;2023-04-29T06:36:25;12.70;99.90
31369;DHT22;18004;48.416;10.066;2023-04-29T06:38:52;12.80;99.90
31369;DHT22;18004;48.416;10.066;2023-04-29T06:41:17;12.80;99.90
31369;DHT22;18004;48.416;10.066;2023-04-29T06:43:43;12.90;99.90
31369;DHT22;18004;48.416;10.066;2023-04-29T06:46:09;13.00;99.90
31369;DHT22;18004;48.416;10.066;2023-04-29T06:48:36;13.00;99.90
31369;DHT22;18004;48.416;10.066;2023-04-29T06:51:01;13.10;99.90
31369;DHT22;18004;48.416;10.066;2023-04-29T06:53:27;13.10;99.90
31369;DHT22;18004;48.416;10.066;2023-04-29T06:55:53;13.20;99.90
31369;DHT22;18004;48.416;10.066;2023-04-29T06:58:19;13.10;99.90
31369;DHT22;18004;48.416;10.066;2023-04-29T07:00:49;13.20;99.90
31369;DHT22;18004;48.416;10.066;2023-04-29T07:03:16;13.30;99.90
31369;DHT22;18004;48.416;10.066;2023-04-29T07:05:43;13.40;99.90
31369;DHT22;18004;48.416;10.066;2023-04-29T07:08:12;13.50;99.90
31369;DHT22;18004;48.416;10.066;2023-04-29T07:10:39;13.60;99.90
31369;DHT22;18004;48.416;10.066;2023-04-29T07:13:05;13.60;99.90
31369;DHT22;18004;48.416;10.066;2023-04-29T07:15:35;13.90;99.90
31369;DHT22;18004;48.416;10.066;2023-04-29T07:18:04;14.20;99.90
31369;DHT22;18004;48.416;10.066;2023-04-29T07:20:30;14.40;99.90
31369;DHT22;18004;48.416;10.066;2023-04-29T07:22:57;14.60;99.90
31369;DHT22;18004;48.416;10.066;2023-04-29T07:25:23;14.80;99.90
31369;DHT22;18004;48.416;10.066;2023-04-29T07:27:48;15.10;99.90
31369;DHT22;18004;48.416;10.066;2023-04-29T07:30:14;15.40;99.90
31369;DHT22;18004;48.416;10.066;2023-04-29T07:32:40;15.30;99.90
31369;DHT22;18004;48.416;10.066;2023-04-29T07:35:06;15.50;99.90
31369;DHT22;18004;48.416;10.066;2023-04-29T07:37:32;15.70;99.90
31369;DHT22;18004;48.416;10.066;2023-04-29T07:39:58;15.60;99.90
31369;DHT22;18004;48.416;10.066;2023-04-29T07:42:24;15.50;99.90
31369;DHT22;18004;48.416;10.066;2023-04-29T07:44:50;15.30;99.90
31369;DHT22;18004;48.416;10.066;2023-04-29T07:47:15;15.40;99.90
31369;DHT22;18004;48.416;10.066;2023-04-29T07:49:41;15.40;99.90
31369;DHT22;18004;48.416;10.066;2023-04-29T07:52:07;15.40;99.90
31369;DHT22;18004;48.416;10.066;2023-04-29T07:54:37;15.20;99.90
31369;DHT22;18004;48.416;10.066;2023-04-29T07:57:03;15.10;99.90
31369;DHT22;18004;48.416;10.066;2023-04-29T07:59:30;15.10;99.90
31369;DHT22;18004;48.416;10.066;2023-04-29T08:01:56;15.10;99.90
31369;DHT22;18004;48.416;10.066;2023-04-29T08:04:22;15.40;99.90
31369;DHT22;18004;48.416;10.066;2023-04-29T08:06:48;15.70;99.90
31369;DHT22;18004;48.416;10.066;2023-04-29T08:09:14;15.70;99.50
31369;DHT22;18004;48.416;10.066;2023-04-29T08:11:40;15.80;99.90
31369;DHT22;18004;48.416;10.066;2023-04-29T08:14:06;15.90;99.80
31369;DHT22;18004;48.416;10.066;2023-04-29T08:16:33;16.00;99.90
31369;DHT22;18004;48.416;10.066;2023-04-29T08:18:59;16.30;99.90
31369;DHT22;18004;48.416;10.066;2023-04-29T08:21:25;16.40;99.90
31369;DHT22;18004;48.416;10.066;2023-04-29T08:23:51;16.60;99.90
31369;DHT22;18004;48.416;10.066;2023-04-29T08:26:18;16.20;95.80
31369;DHT22;18004;48.416;10.066;2023-04-29T08:28:44;15.90;95.10
31369;DHT22;18004;48.416;10.066;2023-04-29T08:31:20;15.70;92.00
31369;DHT22;18004;48.416;10.066;2023-04-29T08:33:46;15.80;98.40
31369;DHT22;18004;48.416;10.066;2023-04-29T08:36:13;16.00;94.90
31369;DHT22;18004;48.416;10.066;2023-04-29T08:38:39;15.90;95.10
31369;DHT22;18004;48.416;10.066;2023-04-29T08:41:07;15.90;95.10
31369;DHT22;18004;48.416;10.066;2023-04-29T08:43:35;15.90;96.20
31369;DHT22;18004;48.416;10.066;2023-04-29T08:46:05;16.00;93.80
31369;DHT22;18004;48.416;10.066;2023-04-29T08:48:32;16.00;92.90
31369;DHT22;18004;48.416;10.066;2023-04-29T08:50:59;16.50;92.50
31369;DHT22;18004;48.416;10.066;2023-04-29T08:53:27;16.80;77.10
31369;DHT22;18004;48.416;10.066;2023-04-29T08:55:53;16.50;68.10
31369;DHT22;18004;48.416;10.066;2023-04-29T08:58:20;16.30;75.10
31369;DHT22;18004;48.416;10.066;2023-04-29T09:00:46;16.20;73.90
31369;DHT22;18004;48.416;10.066;2023-04-29T09:03:26;16.00;78.30
31369;DHT22;18004;48.416;10.066;2023-04-29T09:05:55;16.00;83.10
31369;DHT22;18004;48.416;10.066;2023-04-29T09:08:23;16.10;78.10
31369;DHT22;18004;48.416;10.066;2023-04-29T09:10:50;16.50;78.70
31369;DHT22;18004;48.416;10.066;2023-04-29T09:13:30;16.90;58.00
31369;DHT22;18004;48.416;10.066;2023-04-29T09:15:56;17.10;60.10
31369;DHT22;18004;48.416;10.066;2023-04-29T09:18:48;16.80;45.30
31369;DHT22;18004;48.416;10.066;2023-04-29T09:21:18;16.40;62.20
31369;DHT22;18004;48.416;10.066;2023-04-29T09:23:46;16.30;58.80
31369;DHT22;18004;48.416;10.066;2023-04-29T09:26:13;16.10;64.80
31369;DHT22;18004;48.416;10.066;2023-04-29T09:28:39;15.80;66.30
31369;DHT22;18004;48.416;10.066;2023-04-29T09:31:08;16.00;72.80
31369;DHT22;18004;48.416;10.066;2023-04-29T09:33:51;16.10;75.90
31369;DHT22;18004;48.416;10.066;2023-04-29T09:36:35;16.50;73.40
31369;DHT22;18004;48.416;10.066;2023-04-29T09:39:03;17.30;61.00
31369;DHT22;18004;48.416;10.066;2023-04-29T09:41:30;17.70;40.80
31369;DHT22;18004;48.416;10.066;2023-04-29T09:44:06;17.70;30.00
31369;DHT22;18004;48.416;10.066;2023-04-29T09:46:33;17.80;48.40
31369;DHT22;18004;48.416;10.066;2023-04-29T09:49:24;17.50;52.60
31369;DHT22;18004;48.416;10.066;2023-04-29T09:51:57;17.10;65.40
31369;DHT22;18004;48.416;10.066;2023-04-29T09:54:24;16.60;73.20
31369;DHT22;18004;48.416;10.066;2023-04-29T09:56:52;16.60;89.80
31369;DHT22;18004;48.416;10.066;2023-04-29T09:59:19;16.50;81.80
31369;DHT22;18004;48.416;10.066;2023-04-29T10:01:49;16.30;88.30
31369;DHT22;18004;48.416;10.066;2023-04-29T10:04:17;16.40;86.60
31369;DHT22;18004;48.416;10.066;2023-04-29T10:06:44;16.50;87.10
31369;DHT22;18004;48.416;10.066;2023-04-29T10:09:14;16.30;77.10
31369;DHT22;18004;48.416;10.066;2023-04-29T10:11:45;16.20;83.20
31369;DHT22;18004;48.416;10.066;2023-04-29T10:14:16;16.70;68.90
31369;DHT22;18004;48.416;10.066;2023-04-29T10:24:49;17.00;48.90
31369;DHT22;18004;48.416;10.066;2023-04-29T10:27:17;17.60;52.50
31369;DHT22;18004;48.416;10.066;2023-04-29T10:29:45;17.70;60.40
31369;DHT22;18004;48.416;10.066;2023-04-29T10:32:12;16.90;50.30
31369;DHT22;18004;48.416;10.066;2023-04-29T10:34:38;16.60;53.70
31369;DHT22;18004;48.416;10.066;2023-04-29T10:37:08;16.70;68.50
31369;DHT22;18004;48.416;10.066;2023-04-29T10:39:43;16.70;65.60
31369;DHT22;18004;48.416;10.066;2023-04-29T10:45:23;16.60;65.20
31369;DHT22;18004;48.416;10.066;2023-04-29T10:53:17;17.30;37.30
31369;DHT22;18004;48.416;10.066;2023-04-29T10:55:57;17.40;37.80
31369;DHT22;18004;48.416;10.066;2023-04-29T10:58:40;17.10;38.30
31369;DHT22;18004;48.416;10.066;2023-04-29T11:01:07;16.80;48.50
31369;DHT22;18004;48.416;10.066;2023-04-29T11:06:14;16.90;48.70
31369;DHT22;18004;48.416;10.066;2023-04-29T11:08:40;17.10;45.60
31369;DHT22;18004;48.416;10.066;2023-04-29T11:11:07;17.20;41.80
31369;DHT22;18004;48.416;10.066;2023-04-29T11:13:38;17.80;40.20
31369;DHT22;18004;48.416;10.066;2023-04-29T11:16:08;17.80;31.10
31369;DHT22;18004;48.416;10.066;2023-04-29T11:18:36;17.70;31.60
31369;DHT22;18004;48.416;10.066;2023-04-29T11:21:21;18.00;33.00
31369;DHT22;18004;48.416;10.066;2023-04-29T11:23:50;17.70;32.90
31369;DHT22;18004;48.416;10.066;2023-04-29T11:26:19;17.60;26.40
31369;DHT22;18004;48.416;10.066;2023-04-29T11:28:46;17.50;27.70
31369;DHT22;18004;48.416;10.066;2023-04-29T11:31:12;17.50;27.20
31369;DHT22;18004;48.416;10.066;2023-04-29T11:33:38;17.50;30.40
31369;DHT22;18004;48.416;10.066;2023-04-29T11:36:04;17.70;33.10
31369;DHT22;18004;48.416;10.066;2023-04-29T11:38:30;17.60;28.10
31369;DHT22;18004;48.416;10.066;2023-04-29T11:40:56;17.50;28.30
31369;DHT22;18004;48.416;10.066;2023-04-29T11:43:23;17.50;25.30
31369;DHT22;18004;48.416;10.066;2023-04-29T11:45:50;17.60;26.90
31369;DHT22;18004;48.416;10.066;2023-04-29T11:48:23;17.80;28.10
31369;DHT22;18004;48.416;10.066;2023-04-29T11:50:52;17.80;26.50
31369;DHT22;18004;48.416;10.066;2023-04-29T11:53:22;17.70;26.50
31369;DHT22;18004;48.416;10.066;2023-04-29T11:55:51;17.70;27.30
31369;DHT22;18004;48.416;10.066;2023-04-29T11:58:19;17.90;25.50
31369;DHT22;18004;48.416;10.066;2023-04-29T12:00:49;18.00;26.90
31369;DHT22;18004;48.416;10.066;2023-04-29T12:03:16;18.30;24.60
31369;DHT22;18004;48.416;10.066;2023-04-29T12:05:53;18.30;22.30
31369;DHT22;18004;48.416;10.066;2023-04-29T12:08:23;18.00;25.00
31369;DHT22;18004;48.416;10.066;2023-04-29T12:10:50;18.00;23.80
31369;DHT22;18004;48.416;10.066;2023-04-29T12:13:17;18.10;23.40
31369;DHT22;18004;48.416;10.066;2023-04-29T12:15:48;18.20;21.60
31369;DHT22;18004;48.416;10.066;2023-04-29T12:18:16;18.50;20.40
31369;DHT22;18004;48.416;10.066;2023-04-29T12:20:43;18.30;21.50
31369;DHT22;18004;48.416;10.066;2023-04-29T12:23:13;18.20;21.40
31369;DHT22;18004;48.416;10.066;2023-04-29T12:25:39;18.20;21.60
31369;DHT22;18004;48.416;10.066;2023-04-29T12:28:14;18.40;22.00
31369;DHT22;18004;48.416;10.066;2023-04-29T12:30:40;18.40;18.90
31369;DHT22;18004;48.416;10.066;2023-04-29T12:33:09;18.50;23.20
31369;DHT22;18004;48.416;10.066;2023-04-29T12:35:35;18.40;22.60
31369;DHT22;18004;48.416;10.066;2023-04-29T12:38:01;18.30;21.70
31369;DHT22;18004;48.416;10.066;2023-04-29T12:40:27;18.40;19.30
31369;DHT22;18004;48.416;10.066;2023-04-29T12:42:53;18.10;21.60
31369;DHT22;18004;48.416;10.066;2023-04-29T12:45:29;18.30;21.70
31369;DHT22;18004;48.416;10.066;2023-04-29T12:47:57;18.20;20.90
31369;DHT22;18004;48.416;10.066;2023-04-29T12:50:41;18.40;23.20
31369;DHT22;18004;48.416;10.066;2023-04-29T12:53:07;18.50;19.10
31369;DHT22;18004;48.416;10.066;2023-04-29T12:55:34;18.60;19.60
31369;DHT22;18004;48.416;10.066;2023-04-29T12:58:02;18.40;19.10
31369;DHT22;18004;48.416;10.066;2023-04-29T13:00:28;18.50;19.20
31369;DHT22;18004;48.416;10.066;2023-04-29T13:02:54;18.80;20.90
31369;DHT22;18004;48.416;10.066;2023-04-29T13:05:20;18.70;19.90
31369;DHT22;18004;48.416;10.066;2023-04-29T13:07:47;18.60;22.60
31369;DHT22;18004;48.416;10.066;2023-04-29T13:10:13;18.60;19.20
31369;DHT22;18004;48.416;10.066;2023-04-29T13:12:39;18.40;21.20
31369;DHT22;18004;48.416;10.066;2023-04-29T13:15:06;18.20;23.50
31369;DHT22;18004;48.416;10.066;2023-04-29T13:17:34;18.20;20.40
31369;DHT22;18004;48.416;10.066;2023-04-29T13:20:02;18.50;19.00
31369;DHT22;18004;48.416;10.066;2023-04-29T13:22:29;18.50;19.70
31369;DHT22;18004;48.416;10.066;2023-04-29T13:24:55;18.60;22.40
31369;DHT22;18004;48.416;10.066;2023-04-29T13:27:21;18.80;20.40
31369;DHT22;18004;48.416;10.066;2023-04-29T13:29:47;18.30;19.40
31369;DHT22;18004;48.416;10.066;2023-04-29T13:32:12;18.20;21.80
31369;DHT22;18004;48.416;10.066;2023-04-29T13:34:38;18.00;24.20
31369;DHT22;18004;48.416;10.066;2023-04-29T13:37:08;18.20;26.80
31369;DHT22;18004;48.416;10.066;2023-04-29T13:39:33;18.50;26.70
31369;DHT22;18004;48.416;10.066;2023-04-29T13:42:00;18.40;22.80
31369;DHT22;18004;48.416;10.066;2023-04-29T13:44:29;18.50;25.30
31369;DHT22;18004;48.416;10.066;2023-04-29T13:46:55;18.40;25.60
31369;DHT22;18004;48.416;10.066;2023-04-29T13:49:21;18.40;28.20
31369;DHT22;18004;48.416;10.066;2023-04-29T13:51:47;18.00;29.20
31369;DHT22;18004;48.416;10.066;2023-04-29T13:54:13;17.90;33.50
31369;DHT22;18004;48.416;10.066;2023-04-29T13:56:39;17.60;37.60
31369;DHT22;18004;48.416;10.066;2023-04-29T13:59:04;17.90;38.00
31369;DHT22;18004;48.416;10.066;2023-04-29T14:01:30;17.90;30.80
31369;DHT22;18004;48.416;10.066;2023-04-29T14:03:56;17.90;24.50
31369;DHT22;18004;48.416;10.066;2023-04-29T14:06:22;18.00;29.80
31369;DHT22;18004;48.416;10.066;2023-04-29T14:08:48;18.00;28.90
31369;DHT22;18004;48.416;10.066;2023-04-29T14:11:14;18.10;27.80
31369;DHT22;18004;48.416;10.066;2023-04-29T14:13:39;18.20;27.40
31369;DHT22;18004;48.416;10.066;2023-04-29T14:16:05;18.10;24.00
31369;DHT22;18004;48.416;10.066;2023-04-29T14:18:31;18.20;23.60
31369;DHT22;18004;48.416;10.066;2023-04-29T14:20:57;18.30;27.40
31369;DHT22;18004;48.416;10.066;2023-04-29T14:23:26;18.20;26.60
31369;DHT22;18004;48.416;10.066;2023-04-29T14:25:52;18.20;24.50
31369;DHT22;18004;48.416;10.066;2023-04-29T14:28:18;18.00;24.00
31369;DHT22;18004;48.416;10.066;2023-04-29T14:30:44;17.90;26.10
31369;DHT22;18004;48.416;10.066;2023-04-29T14:33:09;17.80;27.10
31369;DHT22;18004;48.416;10.066;2023-04-29T14:35:35;17.70;25.60
31369;DHT22;18004;48.416;10.066;2023-04-29T14:38:01;18.10;25.10
31369;DHT22;18004;48.416;10.066;2023-04-29T14:40:27;18.20;24.70
31369;DHT22;18004;48.416;10.066;2023-04-29T14:42:52;18.30;24.00
31369;DHT22;18004;48.416;10.066;2023-04-29T14:45:18;18.10;23.20
31369;DHT22;18004;48.416;10.066;2023-04-29T14:47:44;18.10;23.50
31369;DHT22;18004;48.416;10.066;2023-04-29T14:50:11;17.90;22.60
31369;DHT22;18004;48.416;10.066;2023-04-29T14:52:36;17.40;24.30
31369;DHT22;18004;48.416;10.066;2023-04-29T14:55:02;17.60;26.60
31369;DHT22;18004;48.416;10.066;2023-04-29T14:57:28;17.70;22.40
31369;DHT22;18004;48.416;10.066;2023-04-29T14:59:55;17.80;22.70
31369;DHT22;18004;48.416;10.066;2023-04-29T15:02:21;17.60;21.50
31369;DHT22;18004;48.416;10.066;2023-04-29T15:04:46;17.50;25.70
31369;DHT22;18004;48.416;10.066;2023-04-29T15:07:13;17.60;23.50
31369;DHT22;18004;48.416;10.066;2023-04-29T15:09:40;17.50;22.70
31369;DHT22;18004;48.416;10.066;2023-04-29T15:12:07;17.40;23.30
31369;DHT22;18004;48.416;10.066;2023-04-29T15:14:33;17.70;23.60
31369;DHT22;18004;48.416;10.066;2023-04-29T15:16:59;17.80;24.10
31369;DHT22;18004;48.416;10.066;2023-04-29T15:19:25;17.70;22.70
31369;DHT22;18004;48.416;10.066;2023-04-29T15:21:51;17.60;23.80
31369;DHT22;18004;48.416;10.066;2023-04-29T15:24:18;17.60;26.90
31369;DHT22;18004;48.416;10.066;2023-04-29T15:26:44;17.40;25.20
31369;DHT22;18004;48.416;10.066;2023-04-29T15:29:11;17.20;24.20
31369;DHT22;18004;48.416;10.066;2023-04-29T15:31:37;17.10;25.40
31369;DHT22;18004;48.416;10.066;2023-04-29T15:34:03;17.30;26.30
31369;DHT22;18004;48.416;10.066;2023-04-29T15:36:30;17.20;25.70
31369;DHT22;18004;48.416;10.066;2023-04-29T15:38:57;17.20;29.10
31369;DHT22;18004;48.416;10.066;2023-04-29T15:41:23;17.20;27.00
31369;DHT22;18004;48.416;10.066;2023-04-29T15:43:52;17.20;28.20
31369;DHT22;18004;48.416;10.066;2023-04-29T15:46:18;16.90;27.50
31369;DHT22;18004;48.416;10.066;2023-04-29T15:48:44;16.70;27.00